Time;durP1;ratioP1;P1;durP2;ratioP2;P2;SDS_P1;SDS_P2;PMS_P1;PMS_P2;Temp;Humidity;BMP_temperature;BMP_pressure;BME280_temperature;BME280_humidity;BME280_pressure;Samples;Min_cycle;Max_cycle;Signal;HPM_P1;HPM_P2
2023/03/29 00:01:02;;;;;;;6.53;3.45;;;;;;;6.27;81.96;101354.25;5019591;28;20040;-76
2023/03/29 00:03:29;;;;;;;8.02;3.72;;;;;;;6.28;82.28;101347.44;5009565;28;20029;-74
2023/03/29 00:06:01;;;;;;;6.03;2.70;;;;;;;6.28;82.51;101347.44;5015026;28;20132;-74
2023/03/29 00:08:28;;;;;;;7.32;2.80;;;;;;;6.29;81.88;101344.00;5014770;28;20503;-74
2023/03/29 00:10:55;;;;;;;6.38;2.65;;;;;;;6.28;82.27;101343.16;5019995;28;20120;-75
2023/03/29 00:13:21;;;;;;;7.82;3.00;;;;;;;6.28;81.97;101334.59;5017139;28;20060;-75
2023/03/29 00:15:46;;;;;;;7.88;3.38;;;;;;;6.29;82.54;101333.72;5024428;28;20494;-74
2023/03/29 00:18:12;;;;;;;5.88;2.40;;;;;;;6.26;82.25;101337.13;5023864;28;20037;-74
2023/03/29 00:20:37;;;;;;;5.10;2.72;;;;;;;6.27;81.87;101333.72;5012649;28;20040;-73
2023/03/29 00:23:03;;;;;;;6.35;2.88;;;;;;;6.28;81.81;101321.75;5015593;28;20387;-74
2023/03/29 00:25:28;;;;;;;5.65;2.90;;;;;;;6.27;82.37;101327.72;5017833;28;20029;-74
2023/03/29 00:27:54;;;;;;;3.38;2.40;;;;;;;6.26;81.98;101318.28;5022616;28;20049;-75
2023/03/29 00:30:19;;;;;;;6.70;2.30;;;;;;;6.26;82.12;101308.88;5023147;28;20030;-74
2023/03/29 00:32:45;;;;;;;5.75;3.00;;;;;;;6.27;82.46;101318.31;5016331;28;20119;-74
2023/03/29 00:35:11;;;;;;;8.90;2.78;;;;;;;6.27;82.05;101312.31;5016418;28;20045;-74
2023/03/29 00:37:36;;;;;;;6.45;2.80;;;;;;;6.27;81.85;101308.06;5017113;28;20033;-74
2023/03/29 00:40:07;;;;;;;4.72;2.42;;;;;;;6.25;82.18;101311.44;5018279;28;20041;-74
2023/03/29 00:42:32;;;;;;;5.45;2.72;;;;;;;6.30;81.95;101305.53;5010245;28;20153;-74
2023/03/29 00:45:04;;;;;;;5.20;3.17;;;;;;;6.30;81.83;101302.97;5018355;28;20030;-74
2023/03/29 00:47:38;;;;;;;5.93;2.95;;;;;;;6.31;81.68;101289.31;5011124;28;20042;-74
2023/03/29 00:50:30;;;;;;;5.00;3.08;;;;;;;6.33;81.64;101286.75;4997132;28;20053;-74
2023/03/29 00:53:03;;;;;;;4.82;2.92;;;;;;;6.33;81.74;101291.88;5018642;28;20037;-74
2023/03/29 00:55:38;;;;;;;7.97;3.58;;;;;;;6.33;81.74;101281.63;5015486;28;20045;-74
2023/03/29 00:58:07;;;;;;;4.80;2.95;;;;;;;6.34;81.97;101283.34;5015360;28;20033;-74
2023/03/29 01:00:36;;;;;;;4.20;2.30;;;;;;;6.35;81.66;101279.94;5024282;28;20041;-74
2023/03/29 01:03:12;;;;;;;6.00;2.90;;;;;;;6.33;82.30;101272.22;5016358;28;20040;-74
2023/03/29 01:05:42;;;;;;;3.80;2.33;;;;;;;6.34;82.05;101271.38;5018136;28;20044;-74
2023/03/29 01:08:17;;;;;;;7.43;2.92;;;;;;;6.37;81.93;101264.56;5016791;28;20076;-74
2023/03/29 01:10:48;;;;;;;5.03;2.50;;;;;;;6.38;81.68;101264.56;5014042;28;20546;-73
2023/03/29 01:13:19;;;;;;;6.93;3.10;;;;;;;6.39;81.72;101258.63;5017089;28;20037;-74
2023/03/29 01:15:46;;;;;;;6.65;3.38;;;;;;;6.40;81.79;101256.91;5020158;28;20053;-75
2023/03/29 01:18:12;;;;;;;5.97;2.97;;;;;;;6.39;81.52;101252.59;5031123;28;20037;-74
2023/03/29 01:21:14;;;;;;;5.47;2.83;;;;;;;6.40;81.78;101247.50;5037487;28;20164;-73
2023/03/29 01:23:42;;;;;;;5.70;2.60;;;;;;;6.39;81.96;101243.22;5013816;28;20030;-74
2023/03/29 01:26:10;;;;;;;5.32;3.33;;;;;;;6.40;81.48;101242.38;5013082;28;20103;-74
2023/03/29 01:28:58;;;;;;;7.35;3.30;;;;;;;6.41;81.56;101250.94;5017739;28;20112;-74
2023/03/29 01:31:28;;;;;;;4.80;2.80;;;;;;;6.41;81.86;101243.25;5018067;28;20044;-74
2023/03/29 01:34:01;;;;;;;7.13;3.13;;;;;;;6.42;80.98;101232.13;5016941;28;20115;-74
2023/03/29 01:36:33;;;;;;;4.30;2.50;;;;;;;6.43;81.76;101239.84;5017329;28;20042;-74
2023/03/29 01:39:05;;;;;;;6.88;3.15;;;;;;;6.46;81.89;101221.06;5018722;28;20056;-74
2023/03/29 01:41:45;;;;;;;6.45;3.00;;;;;;;6.47;81.42;101212.53;5015029;28;20037;-75
2023/03/29 01:44:24;;;;;;;8.25;3.47;;;;;;;6.48;81.36;101219.38;4994449;28;20080;-73
2023/03/29 01:47:18;;;;;;;5.85;3.33;;;;;;;6.49;81.05;101216.84;5002666;28;20861;-74
2023/03/29 01:49:57;;;;;;;4.40;2.53;;;;;;;6.52;80.88;101218.59;4995566;28;20141;-74
2023/03/29 01:52:30;;;;;;;4.68;2.40;;;;;;;6.54;80.78;101214.34;5015491;28;20037;-74
2023/03/29 01:55:03;;;;;;;5.43;2.72;;;;;;;6.57;80.44;101217.81;5016709;28;20076;-74
2023/03/29 01:57:31;;;;;;;4.65;2.63;;;;;;;6.61;80.08;101214.47;5014011;28;20049;-74
2023/03/29 01:59:58;;;;;;;6.07;3.30;;;;;;;6.63;80.17;101217.03;5019770;28;20084;-74
2023/03/29 02:02:26;;;;;;;4.32;2.83;;;;;;;6.65;80.14;101217.91;5015059;28;20679;-74
2023/03/29 02:04:53;;;;;;;4.75;2.45;;;;;;;6.67;79.45;101221.41;5019401;28;20030;-74
2023/03/29 02:07:23;;;;;;;5.50;2.50;;;;;;;6.70;78.96;101208.59;5016517;28;20033;-74
2023/03/29 02:09:51;;;;;;;9.23;3.08;;;;;;;6.71;79.30;101215.44;5014809;28;20038;-74
2023/03/29 02:12:18;;;;;;;3.80;2.85;;;;;;;6.74;79.00;101218.06;5013040;28;20037;-74
2023/03/29 02:14:43;;;;;;;4.53;2.70;;;;;;;6.74;78.99;101207.78;5017686;28;20052;-74
2023/03/29 02:17:17;;;;;;;4.57;2.90;;;;;;;6.76;79.03;101206.13;5016351;28;20038;-75
2023/03/29 02:19:48;;;;;;;5.97;2.58;;;;;;;6.78;78.95;101201.84;5017172;28;20558;-74
2023/03/29 02:22:18;;;;;;;7.63;3.00;;;;;;;6.80;78.82;101197.59;5017537;28;20034;-74
2023/03/29 02:24:47;;;;;;;5.47;2.22;;;;;;;6.81;78.67;101196.75;5017482;28;20518;-74
2023/03/29 02:27:12;;;;;;;4.43;2.42;;;;;;;6.84;78.65;101186.50;5023176;28;20124;-74
2023/03/29 02:29:38;;;;;;;2.92;2.20;;;;;;;6.85;78.67;101195.97;5018596;28;20629;-74
2023/03/29 02:32:16;;;;;;;4.30;2.92;;;;;;;6.83;78.96;101195.94;5021141;28;20124;-74
2023/03/29 02:34:49;;;;;;;5.82;2.33;;;;;;;6.84;79.03;101189.09;5018198;28;20053;-74
2023/03/29 02:37:17;;;;;;;5.80;2.17;;;;;;;6.84;79.03;101189.09;5018386;28;20034;-74
2023/03/29 02:39:46;;;;;;;3.85;2.38;;;;;;;6.84;79.22;101189.09;5015813;28;20065;-74
2023/03/29 02:42:15;;;;;;;6.15;2.70;;;;;;;6.83;79.24;101190.78;5010328;28;20042;-74
2023/03/29 02:44:45;;;;;;;4.90;2.65;;;;;;;6.84;79.39;101187.38;5020671;28;20099;-74
2023/03/29 02:47:22;;;;;;;4.53;2.47;;;;;;;6.86;79.11;101177.13;5014389;28;21095;-75
2023/03/29 02:49:47;;;;;;;8.80;2.60;;;;;;;6.87;79.15;101173.72;5015379;28;20029;-74
2023/03/29 02:52:21;;;;;;;5.35;2.03;;;;;;;6.87;79.06;101174.56;5018476;28;20080;-74
2023/03/29 02:54:50;;;;;;;5.70;2.63;;;;;;;6.88;79.09;101166.00;5020429;28;20045;-74
2023/03/29 02:57:15;;;;;;;3.55;2.30;;;;;;;6.88;79.56;101176.28;5015588;28;20045;-74
2023/03/29 02:59:42;;;;;;;3.80;2.40;;;;;;;6.90;79.30;101191.75;5015542;28;20042;-74
2023/03/29 03:02:13;;;;;;;5.60;3.05;;;;;;;6.91;80.11;101185.75;5015375;28;20037;-75
2023/03/29 03:04:38;;;;;;;5.68;2.85;;;;;;;6.92;79.58;101187.47;5012749;28;20065;-74
2023/03/29 03:07:04;;;;;;;5.88;2.65;;;;;;;6.94;79.49;101175.53;5016323;28;20232;-75
2023/03/29 03:09:29;;;;;;;5.75;2.53;;;;;;;6.95;79.44;101181.50;5012892;28;20092;-75
2023/03/29 03:11:55;;;;;;;6.68;2.78;;;;;;;6.96;79.22;101178.09;5019406;28;20080;-74
2023/03/29 03:14:21;;;;;;;4.63;2.40;;;;;;;6.97;79.84;101172.13;5017831;28;20519;-74
2023/03/29 03:16:47;;;;;;;4.10;2.35;;;;;;;6.98;79.34;101176.41;4997060;28;20127;-75
2023/03/29 03:19:13;;;;;;;3.28;2.15;;;;;;;6.97;79.40;101165.28;4993934;28;20434;-75
2023/03/29 03:21:38;;;;;;;5.38;2.67;;;;;;;6.96;79.74;101166.13;5014499;28;20048;-75
2023/03/29 03:24:05;;;;;;;4.88;2.28;;;;;;;6.96;80.14;101163.56;5015674;28;20037;-75
2023/03/29 03:26:30;;;;;;;6.65;3.38;;;;;;;6.95;80.12;101172.09;5024248;28;20091;-75
2023/03/29 03:28:56;;;;;;;5.28;2.65;;;;;;;6.96;80.09;101165.25;5021574;28;20049;-74
2023/03/29 04:05:01;;;;;;;6.75;2.72;;;;;;;7.22;77.55;101138.19;5014198;28;20107;-75
2023/03/29 04:07:27;;;;;;;7.63;2.58;;;;;;;7.24;78.27;101139.09;5013685;28;20487;-75
2023/03/29 04:09:52;;;;;;;4.32;2.63;;;;;;;7.21;78.68;101137.31;4999880;28;20117;-75
2023/03/29 04:12:18;;;;;;;3.72;2.30;;;;;;;7.20;78.74;101139.88;5014013;28;20136;-76
2023/03/29 04:14:45;;;;;;;5.18;2.50;;;;;;;7.20;78.21;101137.31;5009638;28;20042;-76
2023/03/29 04:17:11;;;;;;;7.00;2.67;;;;;;;7.21;78.60;101132.16;5010843;28;20061;-75
2023/03/29 04:19:36;;;;;;;3.50;2.20;;;;;;;7.22;78.38;101133.03;4997131;28;20102;-75
2023/03/29 04:22:01;;;;;;;7.95;2.58;;;;;;;7.22;78.43;101131.34;5007667;28;20037;-75
2023/03/29 04:24:27;;;;;;;6.22;2.17;;;;;;;7.25;78.24;101133.06;5014793;28;20095;-75
2023/03/29 04:26:52;;;;;;;7.30;2.67;;;;;;;7.29;77.54;101127.13;5027422;28;20065;-76
2023/03/29 04:29:17;;;;;;;5.38;2.25;;;;;;;7.30;77.49;101132.28;5015390;28;20099;-75
2023/03/29 04:31:43;;;;;;;3.03;2.42;;;;;;;7.32;77.43;101132.31;5022465;28;20106;-75
2023/03/29 04:34:08;;;;;;;5.57;2.80;;;;;;;7.34;77.43;101133.16;5014967;28;20053;-76
2023/03/29 04:36:34;;;;;;;5.57;2.42;;;;;;;7.37;77.44;101128.06;5013109;28;20550;-75
2023/03/29 04:39:00;;;;;;;5.53;2.30;;;;;;;7.40;76.67;101123.81;5016036;28;20409;-75
2023/03/29 04:41:27;;;;;;;4.82;2.40;;;;;;;7.41;76.76;101122.97;5018991;28;20053;-76
2023/03/29 04:43:54;;;;;;;5.22;2.67;;;;;;;7.44;76.67;101122.16;5018943;28;20037;-76
2023/03/29 04:46:20;;;;;;;5.50;2.38;;;;;;;7.45;76.43;101119.56;5004952;28;20034;-75
2023/03/29 04:48:46;;;;;;;4.55;2.40;;;;;;;7.47;76.42;101119.59;5011469;28;20101;-75
2023/03/29 04:51:12;;;;;;;4.97;2.53;;;;;;;7.48;76.42;101116.16;5015151;28;20044;-75
2023/03/29 04:53:37;;;;;;;6.13;2.55;;;;;;;7.51;76.28;101107.59;5019492;28;20136;-76
2023/03/29 04:56:03;;;;;;;5.30;2.75;;;;;;;7.52;76.40;101112.78;5015780;28;20056;-75
2023/03/29 04:58:28;;;;;;;5.45;2.60;;;;;;;7.53;76.35;101104.22;5016262;28;20029;-74
2023/03/29 05:00:57;;;;;;;4.80;2.22;;;;;;;7.53;75.94;101105.94;5015776;28;20687;-76
2023/03/29 05:03:23;;;;;;;6.80;3.03;;;;;;;7.55;76.50;101107.66;5016748;28;20057;-75
2023/03/29 05:05:49;;;;;;;7.22;2.40;;;;;;;7.57;76.27;101102.53;5011211;28;20072;-75
2023/03/29 05:08:14;;;;;;;5.85;2.63;;;;;;;7.57;75.96;101098.25;5018326;28;20656;-75
2023/03/29 05:10:42;;;;;;;4.70;2.83;;;;;;;7.57;76.21;101105.97;5021713;28;20030;-75
2023/03/29 05:13:08;;;;;;;5.85;2.97;;;;;;;7.57;76.37;101103.38;5016141;28;20032;-76
2023/03/29 05:15:34;;;;;;;5.03;2.67;;;;;;;7.58;76.52;101105.13;5017462;28;20087;-75
2023/03/29 05:18:00;;;;;;;4.60;2.90;;;;;;;7.57;75.98;101100.81;5019218;28;20113;-75
2023/03/29 05:20:25;;;;;;;3.38;2.50;;;;;;;7.58;76.03;101094.84;5014093;28;20057;-75
2023/03/29 05:22:51;;;;;;;9.15;2.67;;;;;;;7.59;75.92;101099.16;5015274;28;20176;-75
2023/03/29 05:25:18;;;;;;;3.92;2.58;;;;;;;7.61;75.57;101096.56;5017533;28;20406;-75
2023/03/29 05:27:44;;;;;;;4.32;2.95;;;;;;;7.63;75.19;101089.72;5017324;28;20784;-74
2023/03/29 05:30:12;;;;;;;5.32;3.38;;;;;;;7.64;75.40;101096.59;5019106;28;20037;-75
2023/03/29 05:32:37;;;;;;;10.02;3.80;;;;;;;7.65;75.71;101096.63;5014321;28;20033;-75
2023/03/29 05:35:03;;;;;;;6.05;2.80;;;;;;;7.66;75.44;101093.19;5016460;28;20045;-75
2023/03/29 05:37:32;;;;;;;5.65;3.00;;;;;;;7.69;75.30;101092.34;5019221;28;20513;-74
2023/03/29 05:39:57;;;;;;;6.75;3.15;;;;;;;7.71;75.21;101093.25;5022195;28;20027;-75
2023/03/29 05:42:23;;;;;;;6.40;2.85;;;;;;;7.72;75.31;101088.09;5021611;28;20045;-75
2023/03/29 05:44:49;;;;;;;6.32;3.00;;;;;;;7.75;75.52;101088.13;5031466;28;20498;-75
2023/03/29 05:47:14;;;;;;;4.70;3.00;;;;;;;7.77;74.90;101080.44;5029186;28;20541;-75
2023/03/29 05:49:39;;;;;;;5.15;2.65;;;;;;;7.80;74.63;101086.44;5018061;28;20694;-75
2023/03/29 05:52:05;;;;;;;5.70;2.83;;;;;;;7.83;74.47;101075.31;5011976;28;20537;-76
2023/03/29 05:54:31;;;;;;;4.88;2.90;;;;;;;7.87;74.15;101077.91;5014204;28;20081;-75
2023/03/29 05:56:56;;;;;;;6.03;3.15;;;;;;;7.92;74.82;101078.81;5009445;28;20096;-76
2023/03/29 05:59:23;;;;;;;7.85;2.78;;;;;;;7.93;74.33;101070.25;5017200;28;20052;-76
2023/03/29 06:01:48;;;;;;;6.13;2.42;;;;;;;7.97;74.35;101068.56;5010972;28;20041;-76
2023/03/29 06:04:14;;;;;;;3.78;2.63;;;;;;;8.00;74.16;101072.03;5018475;28;20040;-76
2023/03/29 06:06:40;;;;;;;5.53;2.92;;;;;;;8.02;73.99;101065.16;5010083;28;20033;-75
2023/03/29 06:09:06;;;;;;;5.70;2.50;;;;;;;8.06;73.67;101068.63;5018983;28;20041;-74
2023/03/29 06:11:32;;;;;;;4.38;2.88;;;;;;;8.11;73.31;101058.34;5017349;28;20040;-75
2023/03/29 06:13:57;;;;;;;5.25;2.72;;;;;;;8.15;73.31;101060.97;5019669;28;20033;-75
2023/03/29 06:16:24;;;;;;;6.85;2.50;;;;;;;8.21;74.04;101070.44;5017496;28;20041;-74
2023/03/29 06:18:49;;;;;;;4.38;2.85;;;;;;;8.23;73.65;101068.72;5017483;28;21103;-76
2023/03/29 06:21:15;;;;;;;10.57;2.65;;;;;;;8.26;73.97;101068.72;5013664;28;20084;-75
2023/03/29 06:23:41;;;;;;;5.43;2.83;;;;;;;8.31;73.44;101061.88;5015044;28;20096;-75
2023/03/29 06:26:06;;;;;;;4.20;2.70;;;;;;;8.33;73.62;101071.38;5009685;28;20041;-74
2023/03/29 06:28:32;;;;;;;5.53;2.58;;;;;;;8.34;73.34;101064.47;5007616;28;20037;-76
2023/03/29 06:31:01;;;;;;;5.28;2.40;;;;;;;8.40;73.18;101061.94;5018742;28;20029;-76
2023/03/29 06:33:31;;;;;;;6.95;3.58;;;;;;;8.43;74.21;101082.56;5016059;28;20048;-76
2023/03/29 06:35:57;;;;;;;8.43;3.28;;;;;;;8.48;73.82;101076.59;5013482;28;20042;-76
2023/03/29 06:38:25;;;;;;;6.32;2.67;;;;;;;8.52;73.77;101087.75;5014649;28;20399;-77
2023/03/29 06:40:51;;;;;;;12.15;3.40;;;;;;;8.59;73.74;101086.94;5018506;28;20070;-77
2023/03/29 06:43:17;;;;;;;6.97;2.70;;;;;;;8.65;73.48;101089.56;5014811;28;20036;-76
2023/03/29 06:45:43;;;;;;;5.38;2.90;;;;;;;8.73;72.86;101079.25;5015562;28;20045;-77
2023/03/29 06:48:09;;;;;;;6.25;3.20;;;;;;;8.79;72.72;101075.00;5010069;28;20038;-77
2023/03/29 06:50:35;;;;;;;4.03;2.50;;;;;;;8.88;72.70;101079.31;5017487;28;20574;-76
2023/03/29 06:53:01;;;;;;;5.80;2.70;;;;;;;8.98;72.51;101081.97;5013532;28;20055;-77
2023/03/29 06:55:27;;;;;;;5.47;2.92;;;;;;;9.09;71.60;101074.25;5017678;28;20033;-76
2023/03/29 06:57:53;;;;;;;6.90;2.80;;;;;;;9.22;71.59;101059.66;5012897;28;20041;-75
2023/03/29 07:00:28;;;;;;;5.60;2.72;;;;;;;9.40;71.11;101054.53;5023027;28;20116;-75
2023/03/29 07:02:55;;;;;;;3.92;2.80;;;;;;;9.40;70.44;101063.13;5016168;28;20037;-75
2023/03/29 07:05:20;;;;;;;6.00;2.45;;;;;;;9.42;69.57;101055.38;5018614;28;20041;-75
2023/03/29 07:07:55;;;;;;;4.00;2.55;;;;;;;9.43;69.40;101057.13;5015167;28;20041;-74
2023/03/29 07:10:24;;;;;;;6.03;2.85;;;;;;;9.39;69.81;101053.66;5015795;28;20033;-76
2023/03/29 07:12:51;;;;;;;6.43;3.08;;;;;;;9.40;69.71;101062.28;5018552;28;20036;-73
2023/03/29 07:15:18;;;;;;;6.82;2.88;;;;;;;9.41;70.34;101066.56;5015441;28;20030;-74
2023/03/29 07:17:43;;;;;;;6.25;3.08;;;;;;;9.38;70.55;101075.16;5020277;28;20117;-75
2023/03/29 07:20:12;;;;;;;8.40;2.63;;;;;;;9.34;70.09;101067.41;5011216;28;20525;-76
2023/03/29 07:22:42;;;;;;;6.65;2.75;;;;;;;9.32;70.33;101069.97;5016667;28;20034;-76
2023/03/29 07:25:11;;;;;;;4.40;2.25;;;;;;;9.34;70.50;101078.59;5014087;28;20111;-75
2023/03/29 07:27:37;;;;;;;5.35;2.78;;;;;;;9.41;70.33;101077.75;5012231;28;20042;-75
2023/03/29 07:30:08;;;;;;;7.00;2.67;;;;;;;9.49;70.46;101065.72;5006858;28;20077;-76
2023/03/29 07:32:35;;;;;;;8.55;3.50;;;;;;;9.60;70.14;101053.72;5011725;28;20120;-75
2023/03/29 07:35:00;;;;;;;6.05;2.72;;;;;;;9.71;69.53;101055.41;5012034;28;20100;-75
2023/03/29 07:37:26;;;;;;;6.45;2.75;;;;;;;9.79;69.58;101053.72;5019422;28;20479;-75
2023/03/29 07:39:52;;;;;;;6.05;2.72;;;;;;;9.94;69.22;101054.53;5012597;28;20047;-75
2023/03/29 07:42:17;;;;;;;8.68;2.90;;;;;;;10.08;69.14;101051.94;5015471;28;20169;-75
2023/03/29 07:44:43;;;;;;;5.32;2.75;;;;;;;10.21;68.27;101054.50;5014038;28;20457;-75
2023/03/29 07:47:08;;;;;;;5.57;2.85;;;;;;;10.39;67.49;101022.56;5009411;28;20038;-74
2023/03/29 07:49:34;;;;;;;7.47;3.00;;;;;;;10.52;67.48;101026.84;5007751;28;20456;-73
2023/03/29 07:52:00;;;;;;;4.40;2.45;;;;;;;10.70;67.81;101024.19;5000180;28;20141;-74
2023/03/29 07:54:25;;;;;;;4.38;2.53;;;;;;;10.87;66.85;101003.41;5012674;28;20046;-75
2023/03/29 07:56:51;;;;;;;5.55;2.80;;;;;;;11.06;66.85;101009.31;5008120;28;20053;-75
2023/03/29 07:59:16;;;;;;;7.32;2.95;;;;;;;11.20;66.37;100991.97;5014905;28;20136;-75
2023/03/29 08:01:41;;;;;;;6.75;2.83;;;;;;;11.20;66.06;101007.50;5014557;28;20099;-76
2023/03/29 08:04:07;;;;;;;6.60;3.10;;;;;;;11.19;66.05;100992.81;5014314;28;20025;-76
2023/03/29 08:06:32;;;;;;;11.23;2.38;;;;;;;11.17;65.99;100990.28;5024289;28;20103;-75
2023/03/29 08:08:58;;;;;;;4.25;2.33;;;;;;;11.25;65.99;100997.97;5009013;28;20041;-76
2023/03/29 08:11:24;;;;;;;8.48;2.85;;;;;;;11.38;65.44;100993.56;5010674;28;20114;-75
2023/03/29 08:13:50;;;;;;;5.22;2.35;;;;;;;11.45;65.24;100978.00;5015082;28;20665;-75
2023/03/29 08:16:16;;;;;;;4.65;2.50;;;;;;;11.60;65.17;100974.44;5017143;28;20116;-77
2023/03/29 08:18:42;;;;;;;5.78;2.53;;;;;;;11.69;64.98;100975.19;5016601;28;20097;-77
2023/03/29 08:21:07;;;;;;;5.40;2.47;;;;;;;11.79;64.97;100971.63;5026212;28;20041;-77
2023/03/29 08:23:33;;;;;;;3.90;2.47;;;;;;;12.03;64.50;100974.84;5022748;28;20041;-77
2023/03/29 08:25:58;;;;;;;9.05;3.17;;;;;;;12.11;63.97;100952.31;5029615;28;20548;-76
2023/03/29 08:28:24;;;;;;;5.95;2.45;;;;;;;12.32;63.30;100936.47;5024333;28;20379;-77
2023/03/29 08:30:49;;;;;;;6.10;2.97;;;;;;;12.36;62.93;100933.84;5020365;28;20067;-76
2023/03/29 08:33:15;;;;;;;4.13;2.47;;;;;;;12.41;62.45;100932.03;5015392;28;20038;-76
2023/03/29 08:35:41;;;;;;;11.88;2.38;;;;;;;12.44;62.25;100931.13;5021218;28;20067;-76
2023/03/29 08:38:07;;;;;;;7.68;2.78;;;;;;;12.28;61.82;100929.63;5004621;28;20465;-75
2023/03/29 08:40:33;;;;;;;6.68;2.80;;;;;;;12.08;63.25;100958.38;5016823;28;20057;-75
2023/03/29 08:43:05;;;;;;;8.43;2.53;;;;;;;12.09;62.91;100947.13;5019113;28;20049;-75
2023/03/29 08:45:43;;;;;;;5.65;2.55;;;;;;;12.13;63.84;100976.47;5027415;28;20059;-74
2023/03/29 08:48:14;;;;;;;4.65;2.40;;;;;;;12.15;63.47;100970.38;5031556;28;20079;-75
2023/03/29 08:50:51;;;;;;;5.82;2.65;;;;;;;12.17;63.08;100966.03;5019839;28;20113;-75
2023/03/29 08:53:23;;;;;;;6.25;3.13;;;;;;;12.12;63.55;100980.78;5018600;28;20052;-75
2023/03/29 08:55:50;;;;;;;3.97;2.47;;;;;;;12.26;64.59;100996.16;5028242;28;20049;-76
2023/03/29 08:58:26;;;;;;;7.68;2.88;;;;;;;12.31;64.99;101007.34;5027989;28;20025;-75
2023/03/29 09:00:57;;;;;;;7.30;2.22;;;;;;;12.38;63.07;100967.50;5018589;28;20045;-76
2023/03/29 09:03:22;;;;;;;5.50;2.45;;;;;;;12.41;63.76;100972.66;5020604;28;20498;-74
2023/03/29 09:05:53;;;;;;;5.55;2.55;;;;;;;12.45;62.72;100964.84;5021044;28;20037;-75
2023/03/29 09:08:20;;;;;;;4.40;2.13;;;;;;;12.55;62.93;100964.72;5020259;28;20034;-75
2023/03/29 09:10:53;;;;;;;6.57;2.85;;;;;;;12.73;63.34;100985.22;5022461;28;20025;-74
2023/03/29 09:13:18;;;;;;;4.55;2.10;;;;;;;12.92;62.25;100948.59;5025066;28;20057;-75
2023/03/29 09:15:50;;;;;;;5.00;2.13;;;;;;;13.06;62.76;100955.38;5024515;28;20038;-75
2023/03/29 09:19:05;;;;;;;6.00;2.28;;;;;;;13.16;61.90;100939.63;5021722;28;20072;-76
2023/03/29 09:21:42;;;;;;;5.70;2.30;;;;;;;13.17;61.35;100937.88;5019578;28;20038;-75
2023/03/29 09:24:45;;;;;;;5.82;2.45;;;;;;;13.24;61.21;100948.13;5032640;28;20106;-75
2023/03/29 09:27:26;;;;;;;4.28;2.15;;;;;;;13.29;61.87;100961.03;5016059;28;20810;-76
2023/03/29 09:29:58;;;;;;;7.07;2.50;;;;;;;13.30;61.42;100940.25;5016646;28;20449;-75
2023/03/29 09:32:38;;;;;;;5.55;1.88;;;;;;;13.36;61.24;100934.94;5009727;28;20038;-73
2023/03/29 09:35:17;;;;;;;4.15;1.77;;;;;;;13.39;60.73;100921.91;5002200;28;20129;-75
2023/03/29 09:37:44;;;;;;;5.22;2.05;;;;;;;13.44;60.93;100932.22;5017729;28;20402;-74
2023/03/29 09:40:16;;;;;;;5.53;2.60;;;;;;;13.48;61.24;100939.06;5021457;28;20601;-75
2023/03/29 09:42:43;;;;;;;4.28;2.03;;;;;;;13.50;61.06;100932.13;5021768;28;20114;-75
2023/03/29 09:45:09;;;;;;;7.15;2.15;;;;;;;13.57;60.59;100926.78;5021071;28;20033;-74
2023/03/29 09:47:45;;;;;;;4.50;2.00;;;;;;;13.66;60.23;100919.69;5020421;28;20069;-76
2023/03/29 09:50:39;;;;;;;6.47;2.20;;;;;;;13.65;60.12;100916.28;5017038;28;20060;-75
2023/03/29 09:53:06;;;;;;;6.97;2.27;;;;;;;13.68;61.03;100929.19;5020185;28;20279;-75
2023/03/29 09:55:32;;;;;;;6.10;2.20;;;;;;;13.72;60.89;100935.16;5025799;28;20044;-74
2023/03/29 09:58:11;;;;;;;7.43;1.95;;;;;;;13.71;61.42;100946.47;5020306;28;20025;-76
2023/03/29 10:00:36;;;;;;;6.32;2.05;;;;;;;13.83;61.83;100946.25;5026705;28;20036;-75
2023/03/29 10:03:01;;;;;;;5.82;3.03;;;;;;;13.69;61.89;100943.88;5011646;28;20851;-74
2023/03/29 10:05:31;;;;;;;4.93;2.22;;;;;;;13.77;61.01;100930.78;5024476;28;20041;-74
2023/03/29 10:08:00;;;;;;;6.05;2.25;;;;;;;13.71;61.34;100926.50;5017992;28;20483;-75
2023/03/29 10:10:32;;;;;;;7.03;2.80;;;;;;;13.79;60.55;100911.66;5020675;28;20041;-75
2023/03/29 10:13:04;;;;;;;4.00;2.50;;;;;;;13.97;61.29;100924.31;5017811;28;20115;-74
2023/03/29 10:15:30;;;;;;;5.90;2.30;;;;;;;14.19;60.76;100911.72;5023931;28;20329;-75
2023/03/29 10:18:02;;;;;;;4.93;2.75;;;;;;;14.41;59.73;100893.94;5023689;28;20076;-74
2023/03/29 10:20:28;;;;;;;4.63;2.20;;;;;;;14.32;59.60;100902.78;5024258;28;20033;-74
2023/03/29 10:22:56;;;;;;;6.28;2.65;;;;;;;14.35;59.76;100902.72;5024534;28;20044;-76
2023/03/29 10:25:27;;;;;;;3.50;2.40;;;;;;;14.43;58.61;100884.34;5026827;28;20167;-74
2023/03/29 10:28:01;;;;;;;3.95;2.42;;;;;;;14.40;59.50;100898.28;5017830;28;20041;-74
2023/03/29 10:30:27;;;;;;;5.57;2.67;;;;;;;14.46;58.57;100876.47;5025995;28;20038;-74
2023/03/29 10:32:58;;;;;;;5.30;2.45;;;;;;;14.62;58.84;100875.25;5021077;28;20611;-74
2023/03/29 10:35:27;;;;;;;5.60;2.35;;;;;;;14.60;59.50;100900.47;5021524;28;20087;-74
2023/03/29 10:37:57;;;;;;;4.18;2.47;;;;;;;14.76;58.08;100861.91;5020490;28;20107;-74
2023/03/29 10:40:27;;;;;;;3.33;1.85;;;;;;;15.09;58.04;100851.53;5021554;28;20040;-75
2023/03/29 10:42:58;;;;;;;3.03;2.10;;;;;;;15.30;56.74;100838.84;5031296;28;20573;-75
2023/03/29 10:45:27;;;;;;;7.70;2.30;;;;;;;15.35;56.86;100842.19;5029985;28;20510;-74
2023/03/29 10:47:55;;;;;;;4.72;2.17;;;;;;;15.55;56.79;100837.31;5031650;28;20454;-74
2023/03/29 10:50:21;;;;;;;6.57;2.42;;;;;;;15.53;56.42;100841.69;5027522;28;20045;-74
2023/03/29 10:52:49;;;;;;;4.43;2.20;;;;;;;15.75;56.55;100846.31;5019766;28;20521;-74
2023/03/29 10:55:14;;;;;;;5.78;2.25;;;;;;;15.92;55.66;100830.19;5018585;28;20496;-75
2023/03/29 10:58:01;;;;;;;3.83;2.20;;;;;;;16.06;55.18;100824.53;5020872;28;20033;-75
2023/03/29 11:00:36;;;;;;;6.63;2.10;;;;;;;16.11;55.40;100828.75;5020800;28;20069;-74
2023/03/29 11:03:16;;;;;;;8.77;2.40;;;;;;;16.22;55.60;100837.09;5017947;28;20061;-75
2023/03/29 11:06:09;;;;;;;7.03;2.50;;;;;;;16.19;55.81;100829.38;5018224;28;20064;-75
2023/03/29 11:08:58;;;;;;;3.65;1.88;;;;;;;15.98;55.14;100836.97;5016532;28;20125;-74
2023/03/29 11:11:33;;;;;;;5.72;1.95;;;;;;;15.97;57.07;100862.19;5020970;28;20401;-75
2023/03/29 11:14:32;;;;;;;5.75;2.15;;;;;;;15.96;57.05;100859.63;5024120;28;20747;-75
2023/03/29 11:17:16;;;;;;;5.35;2.38;;;;;;;16.10;56.31;100849.63;5018030;28;20037;-74
2023/03/29 11:20:09;;;;;;;3.08;1.90;;;;;;;16.06;55.54;100835.84;5024640;28;20025;-74
2023/03/29 11:22:40;;;;;;;5.45;1.92;;;;;;;16.06;56.42;100859.31;5011430;28;20029;-73
2023/03/29 11:25:19;;;;;;;4.35;2.28;;;;;;;16.15;56.68;100861.63;5015618;28;20429;-75
2023/03/29 11:27:49;;;;;;;4.00;1.85;;;;;;;16.19;55.94;100831.97;5016826;28;20048;-74
2023/03/29 11:30:26;;;;;;;5.72;2.45;;;;;;;16.42;56.67;100841.69;5009118;28;20858;-74
2023/03/29 11:33:07;;;;;;;6.65;2.45;;;;;;;16.58;55.45;100822.06;5015285;28;20042;-74
2023/03/29 11:35:51;;;;;;;5.38;2.13;;;;;;;16.89;56.34;100827.16;5017175;28;20065;-74
2023/03/29 11:38:36;;;;;;;7.50;2.03;;;;;;;16.91;54.79;100809.69;5014968;28;20087;-75
2023/03/29 11:41:10;;;;;;;5.53;2.30;;;;;;;17.01;54.66;100802.41;5020686;28;20480;-74
2023/03/29 11:43:45;;;;;;;3.95;2.10;;;;;;;16.87;54.68;100810.69;5020906;28;20041;-74
2023/03/29 11:46:31;;;;;;;5.63;2.00;;;;;;;16.80;55.10;100825.69;5020639;28;20033;-74
2023/03/29 11:49:11;;;;;;;4.43;1.77;;;;;;;16.94;53.00;100783.47;5013408;28;20059;-74
2023/03/29 11:51:41;;;;;;;4.85;1.98;;;;;;;17.26;53.93;100796.28;5024034;28;20475;-74
2023/03/29 11:54:16;;;;;;;4.18;2.33;;;;;;;17.37;53.35;100788.03;5016918;28;20037;-74
2023/03/29 11:56:55;;;;;;;3.53;2.00;;;;;;;17.58;53.53;100783.78;5022915;28;21671;-75
2023/03/29 11:59:30;;;;;;;6.07;2.40;;;;;;;17.55;52.30;100781.28;5021641;28;20088;-74
2023/03/29 12:02:04;;;;;;;;;;;;;;;17.46;53.57;100782.47;5019474;28;20098;-74
2023/03/29 12:04:35;;;;;;;4.18;1.75;;;;;;;17.64;54.29;100794.88;5023151;28;20303;-72
2023/03/29 12:07:16;;;;;;;4.03;1.40;;;;;;;17.84;52.75;100776.72;5018976;28;20025;-73
2023/03/29 12:09:49;;;;;;;3.28;1.48;;;;;;;17.86;52.26;100767.06;5028022;28;20054;-77
2023/03/29 12:12:20;;;;;;;4.20;1.55;;;;;;;17.88;53.06;100785.31;5021775;28;20049;-74
2023/03/29 12:14:48;;;;;;;3.22;1.63;;;;;;;17.85;53.46;100796.75;5021340;28;20135;-74